Time;durP1;ratioP1;P1;durP2;ratioP2;P2;SDS_P1;SDS_P2;PMS_P1;PMS_P2;Temp;Humidity;BMP_temperature;BMP_pressure;BME280_temperature;BME280_humidity;BME280_pressure;Samples;Min_cycle;Max_cycle;Signal;HPM_P1;HPM_P2
2022/09/16 00:01:15;;;;;;;3.80;3.47;;;24.00;82.10;;;;;;5101921;28;20533;-79
2022/09/16 00:03:47;;;;;;;3.47;3.17;;;23.80;85.20;;;;;;5105936;28;20490;-81
2022/09/16 00:06:20;;;;;;;4.07;3.67;;;23.60;87.60;;;;;;5111198;28;20512;-76
2022/09/16 00:08:51;;;;;;;4.10;3.80;;;23.60;86.10;;;;;;5103391;28;20507;-78
2022/09/16 00:11:22;;;;;;;3.07;2.70;;;23.50;87.40;;;;;;5103980;28;20462;-75
2022/09/16 00:13:55;;;;;;;3.47;2.63;;;23.50;86.90;;;;;;5107409;28;20474;-76
2022/09/16 00:16:27;;;;;;;3.77;3.30;;;23.40;86.10;;;;;;5086674;28;20451;-79
2022/09/16 00:18:59;;;;;;;3.67;3.37;;;23.50;87.30;;;;;;5109328;28;20558;-80
2022/09/16 00:21:31;;;;;;;3.23;2.93;;;23.30;87.60;;;;;;5104957;28;20494;-77
2022/09/16 00:24:01;;;;;;;4.30;3.37;;;23.20;89.20;;;;;;5116188;28;20497;-76
2022/09/16 00:26:33;;;;;;;5.47;3.23;;;23.00;90.00;;;;;;5107175;28;20538;-74
2022/09/16 00:29:07;;;;;;;4.97;3.70;;;22.90;90.30;;;;;;5107260;28;20457;-75
2022/09/16 00:31:38;;;;;;;3.50;3.20;;;22.70;90.50;;;;;;5118806;28;20798;-76
2022/09/16 00:34:09;;;;;;;3.87;3.57;;;22.50;91.00;;;;;;5113068;28;20543;-74
2022/09/16 00:36:40;;;;;;;5.50;3.40;;;22.40;91.50;;;;;;5110214;28;20458;-73
2022/09/16 00:39:11;;;;;;;4.33;3.73;;;22.40;91.60;;;;;;5111156;28;20482;-76
2022/09/16 00:41:41;;;;;;;5.67;3.90;;;22.40;92.10;;;;;;5105307;28;20481;-76
2022/09/16 00:44:45;;;;;;;3.40;3.10;;;22.40;92.00;;;;;;5104927;28;20486;-80
2022/09/16 00:47:22;;;;;;;3.87;3.43;;;22.40;91.30;;;;;;5113076;28;20581;-76
2022/09/16 00:50:00;;;;;;;4.00;2.93;;;22.40;91.80;;;;;;5102775;28;20470;-76
2022/09/16 00:52:32;;;;;;;3.80;3.40;;;22.40;91.90;;;;;;5088496;28;20570;-73
2022/09/16 00:55:06;;;;;;;3.50;3.20;;;22.40;92.30;;;;;;5090253;28;20463;-77
2022/09/16 00:57:39;;;;;;;5.50;4.30;;;22.40;92.50;;;;;;5091844;28;20457;-78
2022/09/16 01:00:12;;;;;;;4.10;3.70;;;22.30;92.20;;;;;;5103600;28;20514;-71
2022/09/16 01:02:46;;;;;;;4.33;3.90;;;22.30;92.20;;;;;;5103553;28;20455;-73
2022/09/16 01:05:20;;;;;;;5.30;3.37;;;22.30;92.30;;;;;;5099880;28;20494;-78
2022/09/16 01:07:54;;;;;;;3.77;3.37;;;22.20;92.80;;;;;;5102690;28;20465;-77
2022/09/16 01:10:26;;;;;;;3.50;2.67;;;22.10;93.10;;;;;;5112673;28;20467;-84
2022/09/16 01:13:00;;;;;;;3.43;2.90;;;22.10;92.10;;;;;;5115426;28;20458;-75
2022/09/16 01:15:38;;;;;;;2.63;2.43;;;22.00;91.70;;;;;;5104110;28;20486;-74
2022/09/16 01:18:20;;;;;;;3.17;2.87;;;21.90;92.10;;;;;;5104601;28;20531;-75
2022/09/16 01:21:18;;;;;;;3.63;3.30;;;21.80;91.80;;;;;;5096183;28;20524;-73
2022/09/16 01:24:23;;;;;;;3.73;2.90;;;21.70;92.20;;;;;;5105290;28;20453;-71
2022/09/16 01:27:28;;;;;;;3.10;2.23;;;21.60;92.50;;;;;;5107054;28;20488;-68
2022/09/16 01:30:23;;;;;;;3.83;2.97;;;21.50;92.40;;;;;;5095020;28;20470;-68
2022/09/16 01:33:07;;;;;;;3.50;2.43;;;21.40;92.60;;;;;;5107999;28;20449;-70
2022/09/16 01:35:52;;;;;;;3.43;3.10;;;21.40;92.30;;;;;;5094017;28;20444;-68
2022/09/16 01:38:48;;;;;;;4.40;3.47;;;21.30;92.40;;;;;;5093551;28;20442;-69
2022/09/16 01:41:26;;;;;;;4.57;2.97;;;21.20;92.70;;;;;;5100580;28;20524;-69
2022/09/16 01:44:03;;;;;;;3.73;2.77;;;21.30;92.20;;;;;;5102166;28;20437;-70
2022/09/16 01:46:42;;;;;;;3.10;2.80;;;21.20;92.60;;;;;;5101767;28;20466;-77
2022/09/16 01:49:23;;;;;;;5.37;3.53;;;21.20;92.50;;;;;;5106693;28;20454;-74
2022/09/16 01:52:01;;;;;;;7.80;4.50;;;21.10;92.40;;;;;;5099581;28;20454;-70
2022/09/16 01:54:37;;;;;;;5.03;4.23;;;21.10;92.40;;;;;;5101781;28;20460;-75
2022/09/16 01:57:12;;;;;;;8.20;5.33;;;21.00;92.60;;;;;;5109212;28;20538;-79
2022/09/16 01:59:47;;;;;;;6.43;4.87;;;20.90;92.90;;;;;;5100678;28;20461;-75
2022/09/16 02:02:22;;;;;;;4.50;3.73;;;20.90;93.10;;;;;;5099877;28;20803;-75
2022/09/16 02:04:57;;;;;;;4.80;3.87;;;21.00;92.60;;;;;;5101741;28;20468;-73
2022/09/16 02:07:32;;;;;;;3.60;2.70;;;21.00;92.70;;;;;;5103292;28;20462;-73
2022/09/16 02:10:09;;;;;;;2.63;2.30;;;21.00;92.50;;;;;;5101891;28;20454;-72
2022/09/16 02:12:43;;;;;;;2.33;2.13;;;20.80;92.60;;;;;;5098250;28;20481;-74
2022/09/16 02:15:21;;;;;;;3.23;2.93;;;20.80;92.60;;;;;;5101814;28;20433;-74
2022/09/16 02:17:58;;;;;;;3.20;2.57;;;20.80;92.40;;;;;;5103656;28;20481;-71
2022/09/16 02:20:33;;;;;;;2.33;2.13;;;20.80;92.20;;;;;;5098994;28;20541;-77
2022/09/16 02:23:10;;;;;;;2.87;2.10;;;20.80;92.40;;;;;;5110517;28;20484;-75
2022/09/16 02:25:43;;;;;;;4.70;2.40;;;20.70;92.60;;;;;;5098582;28;20498;-74
2022/09/16 02:28:19;;;;;;;2.53;1.90;;;20.80;92.50;;;;;;5102824;28;20442;-74
2022/09/16 02:30:53;;;;;;;2.90;2.20;;;20.80;92.40;;;;;;5100287;28;20508;-74
2022/09/16 02:33:25;;;;;;;2.50;2.10;;;20.70;92.40;;;;;;5099179;28;20422;-75
2022/09/16 02:35:58;;;;;;;2.90;2.63;;;20.70;92.30;;;;;;5102469;28;20421;-75
2022/09/16 02:38:35;;;;;;;2.60;2.40;;;20.60;92.50;;;;;;5103775;28;20469;-72
2022/09/16 02:41:08;;;;;;;3.17;2.60;;;20.60;92.00;;;;;;5101578;28;20446;-72
2022/09/16 02:43:39;;;;;;;3.33;2.37;;;20.60;91.80;;;;;;5100396;28;20454;-77
2022/09/16 02:46:17;;;;;;;2.53;2.23;;;20.60;92.20;;;;;;5115207;28;20525;-76
2022/09/16 02:48:56;;;;;;;2.20;1.90;;;20.40;92.20;;;;;;5110259;28;20458;-79
2022/09/16 02:51:38;;;;;;;2.50;2.30;;;20.50;92.10;;;;;;5102376;28;20504;-75
2022/09/16 02:54:16;;;;;;;2.23;2.03;;;20.50;92.30;;;;;;5102925;28;20446;-78
2022/09/16 02:56:47;;;;;;;2.23;2.00;;;20.40;92.40;;;;;;5091879;28;20453;-76
2022/09/16 02:59:19;;;;;;;2.40;2.20;;;20.40;92.80;;;;;;5106371;28;20476;-70
2022/09/16 03:01:49;;;;;;;2.33;2.13;;;20.40;93.00;;;;;;5116077;28;20465;-70
2022/09/16 03:04:21;;;;;;;4.50;2.30;;;20.40;92.70;;;;;;5122590;28;20448;-70
2022/09/16 03:06:53;;;;;;;1.87;1.70;;;20.40;92.60;;;;;;5104343;28;20985;-70
2022/09/16 03:09:28;;;;;;;1.97;1.77;;;20.30;92.50;;;;;;5115624;28;20450;-73
2022/09/16 03:12:11;;;;;;;2.67;2.40;;;20.30;92.70;;;;;;5101444;28;20458;-72
2022/09/16 03:15:24;;;;;;;3.13;2.10;;;20.30;92.80;;;;;;5103362;28;20506;-72
2022/09/16 03:18:18;;;;;;;2.13;1.87;;;20.20;92.90;;;;;;5094990;28;20516;-72
2022/09/16 03:20:55;;;;;;;2.37;2.10;;;20.20;93.00;;;;;;5101306;28;20480;-71
2022/09/16 03:23:37;;;;;;;2.20;2.00;;;20.20;93.50;;;;;;5105282;28;20488;-72
2022/09/16 03:26:16;;;;;;;2.27;2.07;;;20.10;93.70;;;;;;5115380;28;20480;-71
2022/09/16 03:28:55;;;;;;;3.00;2.33;;;20.10;93.90;;;;;;5102686;28;20462;-70
2022/09/16 03:31:30;;;;;;;5.00;2.83;;;20.10;94.20;;;;;;5108110;28;20442;-70
2022/09/16 03:34:06;;;;;;;3.63;2.27;;;20.10;94.30;;;;;;5104179;28;20924;-69
2022/09/16 03:36:41;;;;;;;3.13;2.30;;;20.00;94.70;;;;;;5101865;28;20985;-69
2022/09/16 03:39:14;;;;;;;2.83;2.40;;;20.00;95.00;;;;;;5106401;28;20432;-68
2022/09/16 03:41:45;;;;;;;2.57;2.37;;;19.90;95.30;;;;;;5104459;28;20467;-69
2022/09/16 03:44:16;;;;;;;3.20;2.90;;;19.90;95.90;;;;;;5105093;28;20475;-70
2022/09/16 03:46:47;;;;;;;3.17;2.57;;;19.90;96.10;;;;;;5104246;28;20479;-70
2022/09/16 03:49:18;;;;;;;2.70;2.50;;;19.90;96.60;;;;;;5107482;28;20425;-71
2022/09/16 03:51:50;;;;;;;7.03;2.87;;;19.90;97.10;;;;;;5106594;28;20506;-72
2022/09/16 03:54:22;;;;;;;3.80;3.03;;;19.80;97.80;;;;;;5108448;28;20433;-73
2022/09/16 03:56:53;;;;;;;3.40;3.10;;;19.80;98.10;;;;;;5109047;28;20542;-71
2022/09/16 03:59:23;;;;;;;2.87;2.57;;;19.70;98.50;;;;;;5117791;28;20486;-71
2022/09/16 04:01:55;;;;;;;4.60;3.10;;;19.80;98.70;;;;;;5124768;28;20532;-70
2022/09/16 04:04:26;;;;;;;4.40;3.50;;;19.70;98.80;;;;;;5105450;28;20485;-70
2022/09/16 04:06:56;;;;;;;2.67;2.47;;;19.60;99.20;;;;;;5105782;28;20491;-72
2022/09/16 04:09:29;;;;;;;3.50;2.60;;;19.60;99.30;;;;;;5106149;28;20455;-71
2022/09/16 04:12:00;;;;;;;3.03;2.57;;;19.60;99.40;;;;;;5104804;28;20501;-72
2022/09/16 04:14:30;;;;;;;3.20;2.70;;;19.60;99.80;;;;;;5105015;28;20448;-70
2022/09/16 04:17:01;;;;;;;2.90;2.60;;;19.60;99.80;;;;;;5104750;28;20469;-70
2022/09/16 04:19:32;;;;;;;3.40;2.97;;;19.50;99.90;;;;;;5104923;28;20621;-71
2022/09/16 04:22:03;;;;;;;2.83;2.37;;;19.50;99.90;;;;;;5106697;28;20450;-71
2022/09/16 04:24:36;;;;;;;3.17;2.70;;;19.50;99.90;;;;;;5104629;28;20487;-70
2022/09/16 04:27:06;;;;;;;3.30;2.97;;;19.50;99.90;;;;;;5092353;28;20490;-69
2022/09/16 04:29:37;;;;;;;4.10;3.30;;;19.40;99.90;;;;;;5103457;28;20782;-69
2022/09/16 04:32:08;;;;;;;4.50;2.93;;;19.40;99.90;;;;;;5100543;28;21004;-68
2022/09/16 04:34:39;;;;;;;3.50;3.20;;;19.40;99.90;;;;;;5104117;28;20480;-70
2022/09/16 04:37:10;;;;;;;3.73;2.43;;;19.30;99.90;;;;;;5087240;28;20518;-68
2022/09/16 04:39:42;;;;;;;3.30;2.60;;;19.20;99.90;;;;;;5099984;28;20458;-74
2022/09/16 04:42:13;;;;;;;2.70;2.40;;;19.20;99.90;;;;;;5091245;28;20460;-74
2022/09/16 04:44:44;;;;;;;2.87;2.60;;;19.20;99.90;;;;;;5106015;28;20873;-73
2022/09/16 04:47:15;;;;;;;4.87;3.97;;;19.10;99.90;;;;;;5106986;28;20510;-75
2022/09/16 04:49:46;;;;;;;2.87;2.60;;;19.20;99.90;;;;;;5105577;28;20464;-69
2022/09/16 04:52:17;;;;;;;4.47;2.80;;;19.20;99.90;;;;;;5096441;28;21471;-70
2022/09/16 04:54:49;;;;;;;2.30;2.10;;;19.20;99.90;;;;;;5094154;28;20440;-70
2022/09/16 04:57:20;;;;;;;4.40;2.50;;;19.20;99.90;;;;;;5108828;28;20509;-67
2022/09/16 04:59:51;;;;;;;3.53;2.70;;;19.10;99.90;;;;;;5101862;28;20462;-69
2022/09/16 05:02:21;;;;;;;3.43;3.00;;;19.10;99.90;;;;;;5102048;28;20448;-71
2022/09/16 05:04:52;;;;;;;3.17;2.50;;;19.00;99.90;;;;;;5102612;28;20476;-69
2022/09/16 05:07:23;;;;;;;3.33;2.63;;;19.00;99.90;;;;;;5104958;28;20490;-70
2022/09/16 05:09:56;;;;;;;3.43;2.30;;;18.90;99.90;;;;;;5116158;28;20442;-66
2022/09/16 05:12:27;;;;;;;3.43;2.50;;;18.90;99.90;;;;;;5104991;28;20452;-67
2022/09/16 05:14:58;;;;;;;3.23;2.33;;;18.90;99.90;;;;;;5088550;28;20548;-68
2022/09/16 05:17:31;;;;;;;3.03;2.47;;;18.80;99.90;;;;;;5105681;28;20970;-71
2022/09/16 05:20:19;;;;;;;2.83;2.40;;;18.70;99.90;;;;;;5101981;28;20530;-67
2022/09/16 05:22:51;;;;;;;2.67;2.30;;;18.80;99.90;;;;;;5098715;28;20421;-68
2022/09/16 05:25:23;;;;;;;2.50;2.30;;;18.80;99.90;;;;;;5109822;28;20428;-68
2022/09/16 05:27:54;;;;;;;2.30;2.10;;;18.70;99.90;;;;;;5106577;28;20468;-67
2022/09/16 05:30:25;;;;;;;2.70;2.50;;;18.70;99.90;;;;;;5105911;28;20496;-72
2022/09/16 05:32:56;;;;;;;3.00;2.57;;;18.70;99.90;;;;;;5102748;28;20584;-67
2022/09/16 05:35:27;;;;;;;2.60;2.10;;;18.60;99.90;;;;;;5113034;28;20557;-69
2022/09/16 05:37:57;;;;;;;3.23;2.07;;;18.50;99.90;;;;;;5110679;28;20459;-66
2022/09/16 05:40:30;;;;;;;2.50;2.13;;;18.50;99.90;;;;;;5102510;28;20465;-67
2022/09/16 05:43:01;;;;;;;2.30;2.10;;;18.50;99.90;;;;;;5102626;28;20541;-68
2022/09/16 05:45:31;;;;;;;2.33;1.90;;;18.50;99.90;;;;;;5102445;28;20437;-67
2022/09/16 05:48:03;;;;;;;1.83;1.70;;;18.50;99.90;;;;;;5119591;28;20448;-68
2022/09/16 05:50:33;;;;;;;2.97;1.87;;;18.40;99.90;;;;;;5111380;28;20429;-68
2022/09/16 05:53:04;;;;;;;3.30;1.70;;;18.30;99.90;;;;;;5106903;28;20825;-68
2022/09/16 05:55:37;;;;;;;2.60;1.93;;;18.40;99.90;;;;;;5101589;28;20524;-69
2022/09/16 05:58:07;;;;;;;2.67;1.90;;;18.30;99.90;;;;;;5109263;28;20521;-69
2022/09/16 06:00:38;;;;;;;2.13;1.83;;;18.20;99.90;;;;;;5108991;28;20490;-68
2022/09/16 06:03:09;;;;;;;1.80;1.50;;;18.10;99.90;;;;;;5103061;28;20433;-68
2022/09/16 06:05:40;;;;;;;2.20;1.70;;;18.10;99.90;;;;;;5100873;28;20506;-68
2022/09/16 06:08:14;;;;;;;2.03;1.87;;;18.10;99.90;;;;;;5102306;28;20562;-69
2022/09/16 06:10:47;;;;;;;2.60;1.77;;;18.10;99.90;;;;;;5112586;28;20578;-68
2022/09/16 06:13:18;;;;;;;2.20;1.70;;;18.10;99.90;;;;;;5102011;28;20485;-68
2022/09/16 06:15:53;;;;;;;1.97;1.83;;;18.00;99.90;;;;;;5104384;28;20497;-68
2022/09/16 06:18:25;;;;;;;1.87;1.67;;;18.00;99.90;;;;;;5119657;28;20480;-68
2022/09/16 06:20:56;;;;;;;2.50;2.13;;;17.90;99.90;;;;;;5104524;28;20475;-69
2022/09/16 06:23:27;;;;;;;1.80;1.47;;;18.00;99.90;;;;;;5106773;28;20448;-68
2022/09/16 06:26:04;;;;;;;2.63;2.30;;;18.00;99.90;;;;;;5109811;28;20447;-69
2022/09/16 06:28:35;;;;;;;1.90;1.63;;;17.90;99.90;;;;;;5113894;28;20463;-68
2022/09/16 06:31:09;;;;;;;2.50;1.67;;;17.90;99.90;;;;;;5107212;28;20450;-68
2022/09/16 06:33:40;;;;;;;2.30;1.10;;;17.90;99.90;;;;;;5096497;28;20533;-71
2022/09/16 06:36:13;;;;;;;2.13;1.70;;;17.80;99.90;;;;;;5102456;28;20503;-68
2022/09/16 06:38:44;;;;;;;1.50;1.20;;;17.80;99.90;;;;;;5101607;28;20480;-68
2022/09/16 06:41:17;;;;;;;1.70;1.60;;;17.70;99.90;;;;;;5109761;28;20714;-68
2022/09/16 06:43:50;;;;;;;2.47;1.20;;;17.70;99.90;;;;;;5090103;28;20441;-67
2022/09/16 06:46:23;;;;;;;2.00;1.50;;;17.60;99.90;;;;;;5121261;28;20486;-68
2022/09/16 06:48:56;;;;;;;1.30;1.07;;;17.50;99.90;;;;;;5106576;28;20510;-67
2022/09/16 06:51:34;;;;;;;1.23;1.00;;;17.50;99.90;;;;;;5119001;28;20469;-67
2022/09/16 06:54:07;;;;;;;2.50;1.20;;;17.50;99.90;;;;;;5102588;28;20589;-68
2022/09/16 06:56:40;;;;;;;1.50;1.37;;;17.40;99.90;;;;;;5108994;28;20441;-68
2022/09/16 06:59:13;;;;;;;1.13;1.03;;;17.40;99.90;;;;;;5101052;28;20508;-68
2022/09/16 07:01:44;;;;;;;1.50;1.40;;;17.30;99.90;;;;;;5109870;28;20462;-70
2022/09/16 07:04:14;;;;;;;1.30;1.20;;;17.30;99.90;;;;;;5107307;28;20434;-69
2022/09/16 07:06:46;;;;;;;1.03;0.90;;;17.20;99.90;;;;;;5108944;28;20433;-69
2022/09/16 07:09:37;;;;;;;3.73;1.00;;;17.10;99.90;;;;;;5104174;28;20562;-69
2022/09/16 07:12:09;;;;;;;1.60;1.20;;;17.10;99.90;;;;;;5101838;28;20498;-70
2022/09/16 07:14:45;;;;;;;1.40;1.30;;;17.10;99.90;;;;;;5102197;28;20455;-68
2022/09/16 07:17:15;;;;;;;1.90;1.07;;;16.90;99.90;;;;;;5104491;28;20447;-69
2022/09/16 07:19:47;;;;;;;1.10;0.90;;;16.70;99.90;;;;;;5111705;28;20535;-69
2022/09/16 07:22:18;;;;;;;1.60;1.00;;;16.70;99.90;;;;;;5114103;28;20450;-69
2022/09/16 07:24:49;;;;;;;1.20;1.10;;;16.60;99.90;;;;;;5105812;28;20446;-69
2022/09/16 07:27:21;;;;;;;1.40;1.10;;;16.60;99.90;;;;;;5106476;28;20499;-69
2022/09/16 07:29:55;;;;;;;2.87;1.20;;;16.50;99.90;;;;;;5125765;28;20462;-70
2022/09/16 07:32:29;;;;;;;1.57;1.07;;;16.50;99.90;;;;;;5111811;28;20446;-69
2022/09/16 07:34:59;;;;;;;1.17;1.00;;;16.40;99.90;;;;;;5106069;28;20442;-70
2022/09/16 07:37:30;;;;;;;1.00;0.70;;;16.30;99.90;;;;;;5123566;28;20514;-69
2022/09/16 07:40:01;;;;;;;1.33;1.23;;;16.30;99.90;;;;;;5102184;28;20454;-69
2022/09/16 07:42:34;;;;;;;1.30;1.20;;;16.30;99.90;;;;;;5112817;28;20531;-68
2022/09/16 07:45:05;;;;;;;2.13;1.30;;;16.30;99.90;;;;;;5108112;28;20455;-69
2022/09/16 07:47:36;;;;;;;0.87;0.80;;;16.30;99.90;;;;;;5112506;28;21085;-69
2022/09/16 07:50:07;;;;;;;1.57;1.00;;;16.40;99.90;;;;;;5114904;27;20458;-69
2022/09/16 07:52:38;;;;;;;1.17;1.07;;;16.30;99.90;;;;;;5105804;28;20450;-68
2022/09/16 07:55:09;;;;;;;1.50;1.13;;;16.30;99.90;;;;;;5105143;28;20461;-69
2022/09/16 07:57:42;;;;;;;1.60;1.10;;;16.40;99.90;;;;;;5104049;28;20519;-69
2022/09/16 08:00:15;;;;;;;1.33;1.23;;;16.30;99.90;;;;;;5108893;28;20498;-69
2022/09/16 08:02:46;;;;;;;2.10;1.20;;;16.40;99.90;;;;;;5114174;28;20492;-69
2022/09/16 08:05:17;;;;;;;1.40;1.17;;;16.40;99.90;;;;;;5104360;28;20459;-69
2022/09/16 08:07:48;;;;;;;1.43;1.30;;;16.40;99.90;;;;;;5106644;28;20525;-69
2022/09/16 08:10:18;;;;;;;0.83;0.83;;;16.40;99.90;;;;;;5111553;28;20433;-69
2022/09/16 08:12:51;;;;;;;1.40;1.10;;;16.40;99.90;;;;;;5098899;28;20462;-69
2022/09/16 08:15:22;;;;;;;2.20;1.00;;;16.40;99.90;;;;;;5107048;28;20488;-69
2022/09/16 08:17:53;;;;;;;1.37;1.00;;;16.50;99.90;;;;;;5103406;28;20462;-69
2022/09/16 08:20:24;;;;;;;2.63;0.93;;;16.50;99.90;;;;;;5107991;28;20550;-69
2022/09/16 08:22:55;;;;;;;1.00;0.90;;;16.60;99.90;;;;;;5104935;28;20507;-70
2022/09/16 08:25:27;;;;;;;1.80;1.17;;;16.60;99.90;;;;;;5104027;28;20467;-70
2022/09/16 08:27:59;;;;;;;2.13;0.93;;;16.60;99.90;;;;;;5108256;28;20497;-70
2022/09/16 08:30:30;;;;;;;1.60;1.20;;;16.60;99.90;;;;;;5110383;28;20488;-70
2022/09/16 08:33:01;;;;;;;1.33;1.10;;;16.60;99.90;;;;;;5103707;28;20454;-69
2022/09/16 08:35:32;;;;;;;1.47;1.23;;;16.60;99.90;;;;;;5106710;28;20459;-70
2022/09/16 08:38:03;;;;;;;0.83;0.83;;;16.50;99.90;;;;;;5117094;28;20428;-70
2022/09/16 08:40:36;;;;;;;3.80;1.00;;;16.60;99.90;;;;;;5118077;28;20511;-69
2022/09/16 08:43:15;;;;;;;1.20;1.10;;;16.70;99.90;;;;;;5106229;28;20588;-70
2022/09/16 08:45:54;;;;;;;1.63;1.23;;;16.60;99.90;;;;;;5105742;28;20483;-70
2022/09/16 08:48:34;;;;;;;0.90;0.90;;;16.50;99.90;;;;;;5115767;28;20559;-70
2022/09/16 08:51:06;;;;;;;1.10;1.00;;;16.40;99.90;;;;;;5107218;28;20446;-71
2022/09/16 08:53:42;;;;;;;1.33;1.20;;;16.40;99.90;;;;;;5115965;28;20462;-68
2022/09/16 08:56:17;;;;;;;1.27;0.80;;;16.30;99.90;;;;;;5103547;28;20462;-69
2022/09/16 08:58:53;;;;;;;1.10;1.00;;;16.30;99.90;;;;;;5104834;28;20469;-68
2022/09/16 09:01:30;;;;;;;1.87;1.23;;;16.30;99.90;;;;;;5106676;28;20477;-69
2022/09/16 09:04:02;;;;;;;1.10;1.00;;;16.10;99.90;;;;;;5107776;28;20450;-69
2022/09/16 09:06:53;;;;;;;2.73;1.30;;;16.00;99.90;;;;;;5105089;28;20560;-69
2022/09/16 09:09:52;;;;;;;1.93;0.90;;;16.00;99.90;;;;;;5103185;28;20872;-70
2022/09/16 09:12:31;;;;;;;1.17;1.07;;;15.90;99.90;;;;;;5103320;28;20474;-69
2022/09/16 09:15:17;;;;;;;1.00;0.80;;;15.80;99.90;;;;;;5106171;28;20942;-69
2022/09/16 09:17:58;;;;;;;0.77;0.77;;;15.80;99.90;;;;;;5112678;28;20466;-69
2022/09/16 09:20:40;;;;;;;1.40;1.30;;;15.60;99.90;;;;;;5114980;28;20487;-70
2022/09/16 09:23:24;;;;;;;0.80;0.80;;;15.60;99.90;;;;;;5089161;28;20465;-68
2022/09/16 09:26:03;;;;;;;1.87;1.17;;;15.60;99.90;;;;;;5095094;28;20466;-69
2022/09/16 09:29:06;;;;;;;0.93;0.70;;;15.60;99.90;;;;;;5116757;28;20493;-69
2022/09/16 09:31:47;;;;;;;1.17;1.00;;;15.60;99.90;;;;;;5086058;28;20457;-69
2022/09/16 09:34:32;;;;;;;1.50;1.07;;;15.50;99.90;;;;;;5092342;28;20429;-69
2022/09/16 09:37:20;;;;;;;1.27;1.17;;;15.50;99.90;;;;;;5105021;28;20468;-69
2022/09/16 09:40:05;;;;;;;1.50;1.27;;;15.50;99.90;;;;;;5101249;28;20543;-69
2022/09/16 09:42:40;;;;;;;2.10;1.10;;;15.60;99.90;;;;;;5102269;28;20462;-70
2022/09/16 09:45:20;;;;;;;2.27;2.07;;;15.60;99.90;;;;;;5106161;28;20458;-68
2022/09/16 09:47:56;;;;;;;0.87;0.70;;;15.50;99.90;;;;;;5111428;28;20436;-69
2022/09/16 09:50:31;;;;;;;1.87;1.27;;;15.50;99.90;;;;;;5114086;28;20489;-68
2022/09/16 09:53:13;;;;;;;1.60;1.33;;;15.50;99.90;;;;;;5104156;28;20474;-69
2022/09/16 09:55:44;;;;;;;1.17;1.07;;;15.50;99.90;;;;;;5102325;28;20457;-69
2022/09/16 09:58:25;;;;;;;3.77;1.20;;;15.50;99.90;;;;;;5113945;28;20452;-70
2022/09/16 10:00:57;;;;;;;1.20;0.97;;;15.50;99.90;;;;;;5110117;28;20956;-70
2022/09/16 10:03:30;;;;;;;1.17;0.83;;;15.60;99.90;;;;;;5101672;28;20451;-70
2022/09/16 10:06:01;;;;;;;1.43;1.20;;;15.60;99.90;;;;;;5087967;28;20484;-69
2022/09/16 10:08:39;;;;;;;1.70;1.20;;;15.60;99.90;;;;;;5106560;28;20516;-70
2022/09/16 10:11:18;;;;;;;1.97;1.40;;;15.60;99.90;;;;;;5115068;28;20517;-69
2022/09/16 10:13:51;;;;;;;1.67;1.57;;;15.60;99.90;;;;;;5111367;28;20933;-70
2022/09/16 10:16:25;;;;;;;0.90;0.90;;;15.60;99.90;;;;;;5101676;28;20432;-69
2022/09/16 10:19:02;;;;;;;1.17;1.10;;;15.60;99.90;;;;;;5113063;28;20550;-70
2022/09/16 10:21:44;;;;;;;1.40;1.23;;;15.60;99.90;;;;;;5110940;28;20450;-70
2022/09/16 10:24:31;;;;;;;2.60;1.67;;;15.60;99.90;;;;;;5094724;28;20459;-70
2022/09/16 10:27:18;;;;;;;1.20;1.10;;;15.50;99.90;;;;;;5102040;28;20471;-69
2022/09/16 10:29:49;;;;;;;1.40;1.17;;;15.60;99.90;;;;;;5097637;28;20497;-69
2022/09/16 10:32:21;;;;;;;1.37;1.20;;;15.60;99.90;;;;;;5101177;28;20433;-68
2022/09/16 10:34:53;;;;;;;2.40;1.33;;;15.50;99.90;;;;;;5103188;28;20566;-70
2022/09/16 10:37:26;;;;;;;2.20;1.63;;;15.60;99.90;;;;;;5103165;28;20942;-69
2022/09/16 10:40:00;;;;;;;1.93;1.60;;;15.60;99.90;;;;;;5103170;28;20487;-70
2022/09/16 10:42:33;;;;;;;1.43;1.17;;;15.60;99.90;;;;;;5106011;28;20541;-70
2022/09/16 10:45:15;;;;;;;1.53;1.30;;;15.60;99.90;;;;;;5094168;28;20438;-70
2022/09/16 10:47:52;;;;;;;2.50;1.10;;;15.60;99.90;;;;;;5112189;28;20446;-69
2022/09/16 10:50:25;;;;;;;2.40;1.40;;;15.60;99.90;;;;;;5089295;28;20493;-68
2022/09/16 10:52:56;;;;;;;1.43;1.33;;;15.60;99.90;;;;;;5099101;28;20511;-69
2022/09/16 10:55:31;;;;;;;1.83;1.30;;;15.60;99.90;;;;;;5108979;28;20525;-70
2022/09/16 10:58:14;;;;;;;1.10;1.00;;;15.60;99.90;;;;;;5111493;28;20819;-69
2022/09/16 11:00:53;;;;;;;1.30;1.13;;;15.60;99.90;;;;;;5088301;28;20515;-70
2022/09/16 11:04:08;;;;;;;1.70;1.60;;;15.60;99.90;;;;;;5101397;28;20466;-70
2022/09/16 11:06:52;;;;;;;1.40;1.13;;;15.60;99.90;;;;;;5094236;28;20557;-70
2022/09/16 11:09:30;;;;;;;1.50;1.40;;;15.50;99.90;;;;;;5106684;28;20477;-70
2022/09/16 11:12:50;;;;;;;1.90;1.40;;;15.50;99.90;;;;;;5101420;28;20436;-71
2022/09/16 11:15:33;;;;;;;1.70;1.40;;;15.50;99.90;;;;;;5030145;28;20461;-70
2022/09/16 11:18:20;;;;;;;1.00;0.90;;;15.40;99.90;;;;;;5044587;28;20579;-70
2022/09/16 11:21:12;;;;;;;1.33;1.20;;;15.50;99.90;;;;;;5032125;28;20457;-68
2022/09/16 11:24:02;;;;;;;1.90;1.37;;;15.30;99.90;;;;;;5039102;28;20461;-69
2022/09/16 11:26:44;;;;;;;1.40;1.30;;;15.30;99.90;;;;;;5037793;28;21353;-70
2022/09/16 11:29:29;;;;;;;1.03;0.93;;;15.40;99.90;;;;;;5045048;28;20457;-69
2022/09/16 11:32:13;;;;;;;1.97;1.60;;;15.30;99.90;;;;;;5038667;28;20669;-70
2022/09/16 11:34:59;;;;;;;1.50;1.40;;;15.20;99.90;;;;;;5024953;28;20453;-70
2022/09/16 11:37:36;;;;;;;1.30;1.20;;;15.30;99.90;;;;;;5037607;28;20457;-70
2022/09/16 11:40:26;;;;;;;1.90;1.30;;;15.30;99.90;;;;;;5052420;28;20459;-70
2022/09/16 11:43:11;;;;;;;1.10;1.10;;;15.30;99.90;;;;;;5048703;28;20531;-69
2022/09/16 11:45:52;;;;;;;2.10;1.60;;;15.30;99.90;;;;;;5053139;28;20573;-69
2022/09/16 11:48:39;;;;;;;1.40;1.30;;;15.30;99.90;;;;;;5047929;28;20477;-69
2022/09/16 11:51:19;;;;;;;1.47;1.37;;;15.30;99.90;;;;;;5071115;28;20471;-69
2022/09/16 11:54:03;;;;;;;1.70;1.07;;;15.30;99.90;;;;;;5107776;28;20437;-70
2022/09/16 11:56:41;;;;;;;1.57;1.13;;;15.40;99.90;;;;;;5101361;28;20425;-69
2022/09/16 11:59:19;;;;;;;1.10;1.00;;;15.30;99.90;;;;;;5107241;28;20450;-69
2022/09/16 12:01:55;;;;;;;1.20;1.10;;;15.40;99.90;;;;;;5102289;28;20495;-70
2022/09/16 12:04:30;;;;;;;1.20;1.13;;;15.40;99.90;;;;;;5121265;28;20509;-70
2022/09/16 12:07:13;;;;;;;1.23;1.13;;;15.30;99.90;;;;;;5101428;28;20468;-69
2022/09/16 12:09:49;;;;;;;1.07;0.97;;;15.40;99.90;;;;;;5105992;28;20982;-69
2022/09/16 12:12:24;;;;;;;1.27;1.17;;;15.40;99.90;;;;;;5104466;28;20523;-71
2022/09/16 12:14:59;;;;;;;1.10;1.10;;;15.40;99.90;;;;;;5105354;28;20468;-70
2022/09/16 12:17:37;;;;;;;1.50;1.30;;;15.30;99.90;;;;;;5111306;28;20457;-70
2022/09/16 12:20:17;;;;;;;2.00;1.43;;;15.40;99.90;;;;;;5116581;28;20840;-69
2022/09/16 12:22:52;;;;;;;1.40;1.30;;;15.40;99.90;;;;;;5109400;28;20461;-70
2022/09/16 12:25:27;;;;;;;3.00;1.00;;;15.40;99.90;;;;;;5104503;28;20882;-70
2022/09/16 12:28:04;;;;;;;2.17;1.40;;;15.30;99.90;;;;;;5107624;28;20985;-69
2022/09/16 12:30:39;;;;;;;1.77;1.67;;;15.30;99.90;;;;;;5114441;28;20501;-70
2022/09/16 12:33:17;;;;;;;1.67;1.20;;;15.30;99.90;;;;;;5107899;28;20957;-70
2022/09/16 12:35:56;;;;;;;2.33;1.20;;;15.30;99.90;;;;;;5112565;28;20454;-70
2022/09/16 12:38:27;;;;;;;1.40;1.30;;;15.30;99.90;;;;;;5103218;28;20871;-70
2022/09/16 12:41:25;;;;;;;1.47;1.20;;;15.30;99.90;;;;;;5100090;28;20457;-70
2022/09/16 12:44:27;;;;;;;1.40;1.30;;;15.20;99.90;;;;;;5090128;28;20454;-70
2022/09/16 12:47:23;;;;;;;1.67;1.47;;;15.20;99.90;;;;;;5064241;28;20458;-71
2022/09/16 12:50:14;;;;;;;1.37;1.27;;;15.10;99.90;;;;;;5060670;28;20464;-69
2022/09/16 12:53:13;;;;;;;1.30;1.17;;;15.10;99.90;;;;;;5073583;28;20438;-70
2022/09/16 12:56:01;;;;;;;1.87;1.50;;;15.10;99.90;;;;;;5060375;28;20498;-69
2022/09/16 12:59:12;;;;;;;1.20;1.10;;;15.10;99.90;;;;;;5068898;28;20605;-70
2022/09/16 13:01:48;;;;;;;1.57;1.40;;;15.10;99.90;;;;;;5062472;28;20979;-70
2022/09/16 13:04:22;;;;;;;1.20;0.97;;;15.10;99.90;;;;;;5061320;28;20971;-70
2022/09/16 13:06:57;;;;;;;1.17;1.07;;;15.00;99.90;;;;;;5060830;28;20446;-70
2022/09/16 13:09:32;;;;;;;1.60;1.50;;;15.10;99.90;;;;;;5062247;28;20501;-70
2022/09/16 13:12:06;;;;;;;1.20;1.10;;;15.00;99.90;;;;;;5066141;28;20506;-71
2022/09/16 13:14:58;;;;;;;1.13;1.03;;;15.00;99.90;;;;;;5066082;28;20480;-70
2022/09/16 13:17:33;;;;;;;1.73;1.47;;;15.00;99.90;;;;;;5061169;28;20499;-71
2022/09/16 13:20:14;;;;;;;2.10;1.07;;;15.00;99.90;;;;;;5056779;28;20519;-71
2022/09/16 13:22:49;;;;;;;1.90;1.63;;;14.90;99.90;;;;;;5070261;28;20429;-71
2022/09/16 13:25:24;;;;;;;1.53;1.43;;;14.90;99.90;;;;;;5107642;28;20506;-71
2022/09/16 13:27:59;;;;;;;1.30;1.20;;;14.90;99.90;;;;;;5106231;28;20749;-71
2022/09/16 13:30:34;;;;;;;3.10;1.40;;;14.80;99.90;;;;;;5124257;28;20477;-71
2022/09/16 13:33:30;;;;;;;1.57;1.47;;;14.80;99.90;;;;;;5104541;28;20466;-70
2022/09/16 13:36:32;;;;;;;1.70;1.60;;;14.80;99.90;;;;;;5109683;28;20444;-71